Time;durP1;ratioP1;P1;durP2;ratioP2;P2;SDS_P1;SDS_P2;PMS_P1;PMS_P2;Temp;Humidity;BMP_temperature;BMP_pressure;BME280_temperature;BME280_humidity;BME280_pressure;Samples;Min_cycle;Max_cycle;Signal;HPM_P1;HPM_P2
2020/12/31 00:02:13;;;;;;;4.80;2.33;;;3.00;72.60;;;1.02;74.21;95172.75;5006428;28;20038;-73
2020/12/31 00:04:39;;;;;;;4.53;2.42;;;2.90;72.80;;;0.99;73.79;95169.66;4986823;28;20060;-73
2020/12/31 00:07:06;;;;;;;6.13;2.95;;;2.90;72.90;;;0.94;73.88;95172.72;5007040;28;20070;-73
2020/12/31 00:09:33;;;;;;;3.75;2.38;;;2.90;73.10;;;0.89;74.43;95175.75;5004575;28;20052;-72
2020/12/31 00:11:59;;;;;;;3.90;2.80;;;2.80;73.20;;;0.83;74.69;95178.13;4986506;28;20050;-72
2020/12/31 00:14:25;;;;;;;4.20;2.70;;;2.70;73.40;;;0.78;74.88;95172.59;5003477;28;20117;-74
2020/12/31 00:16:50;;;;;;;4.57;3.10;;;2.70;73.80;;;0.72;74.57;95173.22;4999967;28;20049;-73
2020/12/31 00:19:16;;;;;;;5.55;2.78;;;2.60;74.10;;;0.67;74.21;95176.22;5004573;28;20054;-73
2020/12/31 00:21:42;;;;;;;4.75;2.83;;;2.60;74.00;;;0.63;74.22;95176.69;5006130;28;20060;-73
2020/12/31 00:24:08;;;;;;;4.20;2.50;;;2.60;74.10;;;0.59;74.29;95183.94;4987694;28;20109;-73
2020/12/31 00:26:34;;;;;;;5.40;2.70;;;2.50;74.30;;;0.55;74.57;95183.44;5004016;28;20034;-72
2020/12/31 00:29:00;;;;;;;4.70;2.58;;;2.40;74.40;;;0.53;74.63;95181.97;5004316;28;20421;-73
2020/12/31 00:31:25;;;;;;;4.20;2.80;;;2.50;74.40;;;0.50;74.76;95177.91;5005432;28;20057;-72
2020/12/31 00:33:51;;;;;;;3.95;2.50;;;2.50;74.30;;;0.44;75.06;95181.06;5006829;28;20077;-72
2020/12/31 00:36:17;;;;;;;5.38;2.85;;;2.40;74.70;;;0.44;75.04;95181.06;5004702;28;20327;-73
2020/12/31 00:38:43;;;;;;;4.68;2.75;;;2.40;74.60;;;0.41;75.01;95185.72;5005705;28;20065;-73
2020/12/31 00:41:09;;;;;;;4.10;2.45;;;2.40;74.80;;;0.38;75.05;95180.88;4972835;28;20034;-73
2020/12/31 00:43:34;;;;;;;3.92;2.63;;;2.30;74.90;;;0.35;75.30;95181.97;5004375;28;20584;-73
2020/12/31 00:46:00;;;;;;;6.03;2.78;;;2.30;75.10;;;0.30;75.38;95174.66;5001558;28;20104;-71
2020/12/31 00:48:26;;;;;;;4.22;2.47;;;2.30;75.10;;;0.33;74.99;95183.91;5004282;28;20042;-71
2020/12/31 00:50:52;;;;;;;4.05;2.45;;;2.30;75.00;;;0.33;74.95;95173.56;5003637;28;20133;-72
2020/12/31 00:53:17;;;;;;;5.65;2.72;;;2.40;75.10;;;0.33;75.18;95178.72;4971219;28;20541;-72
2020/12/31 00:55:43;;;;;;;5.30;3.17;;;2.30;75.00;;;0.33;75.06;95189.06;5003938;28;20065;-72
2020/12/31 00:58:09;;;;;;;6.70;3.17;;;2.40;75.10;;;0.34;75.13;95179.53;5004815;28;20055;-72
2020/12/31 01:00:35;;;;;;;5.18;2.80;;;2.40;74.90;;;0.35;75.12;95183.75;5003583;28;20061;-72
2020/12/31 01:03:01;;;;;;;4.20;2.70;;;2.40;75.10;;;0.36;75.70;95182.78;5004140;28;20485;-72
2020/12/31 01:05:27;;;;;;;4.65;2.97;;;2.40;74.90;;;0.38;75.58;95197.19;5004191;28;20042;-73
2020/12/31 01:07:53;;;;;;;5.90;3.20;;;2.40;74.90;;;0.41;75.65;95193.50;4987366;28;20077;-72
2020/12/31 01:10:19;;;;;;;5.07;3.08;;;2.50;74.70;;;0.44;75.62;95203.53;5004990;28;20103;-72
2020/12/31 01:12:44;;;;;;;4.40;3.08;;;2.40;74.70;;;0.44;75.53;95196.59;5003813;28;20034;-72
2020/12/31 01:15:10;;;;;;;6.82;3.35;;;2.50;74.70;;;0.47;75.32;95191.16;5004749;28;20125;-72
2020/12/31 01:17:36;;;;;;;5.18;3.17;;;2.50;74.60;;;0.50;75.25;95195.22;4971095;28;20073;-73
2020/12/31 01:20:02;;;;;;;7.07;4.00;;;2.50;74.70;;;0.51;75.52;95192.47;5006038;28;20069;-72
2020/12/31 01:22:28;;;;;;;11.52;7.10;;;2.60;74.90;;;0.54;75.59;95181.00;5007624;28;20041;-73
2020/12/31 01:24:55;;;;;;;8.35;5.43;;;2.70;75.20;;;0.57;75.64;95191.84;5006261;28;20370;-73
2020/12/31 01:27:20;;;;;;;5.40;3.15;;;2.60;74.50;;;0.58;75.84;95183.13;5007810;28;20045;-72
2020/12/31 01:29:46;;;;;;;4.88;3.20;;;2.60;74.00;;;0.61;75.21;95188.00;5006057;28;20054;-73
2020/12/31 01:32:12;;;;;;;4.68;3.03;;;2.60;73.80;;;0.60;75.67;95186.38;4990359;28;20044;-71
2020/12/31 01:34:37;;;;;;;6.07;3.38;;;2.60;74.00;;;0.64;75.05;95189.47;4989279;28;20196;-73
2020/12/31 01:37:03;;;;;;;4.70;2.90;;;2.70;73.90;;;0.67;75.77;95190.94;5006339;28;20161;-73
2020/12/31 01:39:29;;;;;;;5.68;3.30;;;2.80;73.70;;;0.68;75.34;95187.41;5008238;28;20142;-72
2020/12/31 01:42:04;;;;;;;4.13;3.22;;;2.70;73.60;;;0.69;75.86;95189.88;5006334;28;20045;-72
2020/12/31 01:44:30;;;;;;;5.72;3.42;;;2.70;73.40;;;0.68;75.44;95183.06;5005758;28;20026;-71
2020/12/31 01:46:58;;;;;;;4.57;3.15;;;2.60;73.70;;;0.68;75.88;95187.41;5005380;28;20127;-72
2020/12/31 01:49:24;;;;;;;4.97;3.13;;;2.70;73.80;;;0.67;75.59;95185.78;4989982;28;20060;-73
2020/12/31 01:51:50;;;;;;;6.65;3.40;;;2.60;73.80;;;0.64;75.40;95178.31;5000062;28;20038;-72
2020/12/31 01:54:19;;;;;;;5.72;3.60;;;2.60;74.00;;;0.63;75.56;95179.28;4989192;28;20049;-73
2020/12/31 01:56:45;;;;;;;6.30;3.70;;;2.60;74.10;;;0.60;75.06;95170.84;4961584;28;20038;-72
2020/12/31 01:59:11;;;;;;;6.72;3.78;;;2.60;74.00;;;0.59;75.07;95168.41;4990344;28;20041;-73
2020/12/31 02:01:37;;;;;;;7.53;3.42;;;2.60;74.00;;;0.57;75.50;95171.16;5002593;28;20678;-72
2020/12/31 02:04:02;;;;;;;6.10;3.35;;;2.60;74.00;;;0.55;75.57;95170.50;5005218;28;20187;-73
2020/12/31 02:06:28;;;;;;;8.18;3.88;;;2.60;73.90;;;0.53;74.85;95174.22;5006685;28;20034;-73
2020/12/31 02:08:54;;;;;;;6.00;3.80;;;2.60;74.10;;;0.50;75.09;95169.34;5005485;28;20422;-72
2020/12/31 02:11:22;;;;;;;5.28;3.83;;;2.50;74.00;;;0.46;75.36;95179.19;5003712;28;20054;-72
2020/12/31 02:13:48;;;;;;;5.38;3.45;;;2.50;74.20;;;0.43;75.32;95181.22;5005395;28;20056;-72
2020/12/31 02:16:18;;;;;;;12.30;6.82;;;2.40;74.40;;;0.41;75.68;95173.63;4987633;28;20034;-73
2020/12/31 02:19:01;;;;;;;15.45;8.68;;;2.40;74.40;;;0.40;76.37;95178.94;4984802;28;20041;-73
2020/12/31 02:21:35;;;;;;;10.30;6.20;;;2.50;74.30;;;0.35;76.64;95171.63;5004618;28;20125;-73
2020/12/31 02:24:04;;;;;;;6.28;4.22;;;2.40;74.80;;;0.34;76.16;95170.00;4992705;28;20111;-73
2020/12/31 02:26:31;;;;;;;6.75;3.85;;;2.40;74.60;;;0.32;75.78;95165.94;5005398;28;20432;-73
2020/12/31 02:28:58;;;;;;;5.97;3.30;;;2.40;74.80;;;0.28;76.22;95170.59;5004986;28;20037;-72
2020/12/31 02:31:24;;;;;;;6.18;3.95;;;2.30;74.70;;;0.26;75.92;95167.38;5006721;28;20124;-72
2020/12/31 02:33:51;;;;;;;6.15;3.80;;;2.40;74.60;;;0.23;76.04;95176.22;4988912;28;20046;-72
2020/12/31 02:36:18;;;;;;;6.00;4.05;;;2.30;74.70;;;0.21;76.06;95174.72;5006103;28;20038;-72
2020/12/31 02:38:44;;;;;;;5.68;4.03;;;2.30;74.60;;;0.16;75.92;95164.03;4987973;28;20046;-72
2020/12/31 02:41:11;;;;;;;6.68;3.80;;;2.10;74.90;;;0.13;75.98;95161.75;5006340;28;20037;-72
2020/12/31 02:43:37;;;;;;;6.80;3.92;;;2.20;74.90;;;0.09;75.87;95161.22;5001897;28;20042;-71
2020/12/31 02:46:07;;;;;;;5.50;3.30;;;2.20;74.80;;;0.07;76.19;95167.50;5006403;28;20579;-72
2020/12/31 02:48:32;;;;;;;6.05;4.15;;;2.10;75.00;;;0.04;76.05;95171.19;5003675;28;20046;-73
2020/12/31 02:50:58;;;;;;;5.70;3.70;;;2.10;75.10;;;-0.02;75.69;95167.41;5005319;28;20056;-72
2020/12/31 02:53:24;;;;;;;5.95;4.13;;;2.10;75.10;;;-0.06;76.21;95158.31;5005403;28;20128;-73
2020/12/31 02:55:50;;;;;;;7.38;4.40;;;2.00;75.30;;;-0.08;75.83;95162.84;4982455;28;20041;-71
2020/12/31 02:58:16;;;;;;;8.00;3.78;;;2.00;75.20;;;-0.11;75.97;95160.53;4972336;28;20025;-72
2020/12/31 03:00:41;;;;;;;5.15;3.85;;;2.00;75.30;;;-0.14;76.21;95160.84;5004306;28;20108;-72
2020/12/31 03:03:07;;;;;;;4.80;3.60;;;2.00;75.50;;;-0.17;76.14;95155.97;4988608;28;20113;-72
2020/12/31 03:05:33;;;;;;;5.95;4.38;;;1.90;75.40;;;-0.22;76.18;95167.72;5004896;28;20029;-72
2020/12/31 03:07:59;;;;;;;6.00;4.10;;;1.80;75.70;;;-0.24;76.33;95154.91;5002957;28;20120;-72
2020/12/31 03:10:24;;;;;;;5.63;3.60;;;1.90;75.70;;;-0.26;76.15;95156.81;4988344;28;20061;-71
2020/12/31 03:12:50;;;;;;;7.95;4.10;;;1.90;75.60;;;-0.29;76.30;95157.13;5004218;28;20516;-72
2020/12/31 03:15:18;;;;;;;5.70;3.67;;;1.80;75.70;;;-0.32;76.50;95153.06;4988085;28;20073;-72
2020/12/31 03:17:44;;;;;;;6.32;4.28;;;1.80;75.70;;;-0.38;76.49;95151.06;5005061;28;20057;-72
2020/12/31 03:20:10;;;;;;;5.72;3.97;;;1.80;75.90;;;-0.34;76.54;95149.00;4989308;28;20121;-72
2020/12/31 03:22:36;;;;;;;6.05;4.10;;;1.80;75.70;;;-0.37;76.29;95159.63;4971981;28;20107;-73
2020/12/31 03:25:02;;;;;;;6.13;4.00;;;1.80;75.60;;;-0.42;76.56;95151.50;5005971;28;20064;-73
2020/12/31 03:27:28;;;;;;;6.95;4.50;;;1.70;76.00;;;-0.44;76.65;95163.75;4986465;28;20031;-73
2020/12/31 03:29:54;;;;;;;6.10;4.13;;;1.70;76.10;;;-0.46;76.61;95160.47;4987343;28;20061;-73
2020/12/31 03:32:19;;;;;;;6.50;4.47;;;1.70;76.10;;;-0.50;76.35;95159.16;5001281;28;20084;-73
2020/12/31 03:34:45;;;;;;;8.45;4.60;;;1.60;76.20;;;-0.53;76.78;95159.44;5002555;28;20060;-73
2020/12/31 03:37:11;;;;;;;6.75;4.40;;;1.60;76.30;;;-0.55;76.82;95156.19;4988377;28;20069;-73
2020/12/31 03:39:37;;;;;;;7.07;4.60;;;1.60;76.30;;;-0.57;76.68;95158.09;5002991;28;20112;-73
2020/12/31 03:42:03;;;;;;;6.57;4.38;;;1.60;76.40;;;-0.60;76.72;95155.81;4984722;28;20037;-73
2020/12/31 03:44:29;;;;;;;6.28;4.45;;;1.50;76.60;;;-0.64;77.08;95152.72;5004202;28;20080;-71
2020/12/31 03:46:54;;;;;;;6.70;4.63;;;1.40;76.80;;;-0.69;76.41;95147.97;4988582;28;20132;-71
2020/12/31 03:49:20;;;;;;;8.52;5.65;;;1.40;77.10;;;-0.72;77.27;95150.81;4989231;28;20120;-72
2020/12/31 03:51:46;;;;;;;5.85;4.60;;;1.40;77.10;;;-0.75;76.94;95145.94;4988609;28;20552;-71
2020/12/31 03:54:11;;;;;;;7.72;4.95;;;1.30;77.30;;;-0.76;77.22;95152.06;5004788;28;20121;-72
2020/12/31 03:56:37;;;;;;;7.30;4.68;;;1.30;77.30;;;-0.79;77.23;95144.63;5001588;28;20041;-72
2020/12/31 03:59:04;;;;;;;9.05;4.70;;;1.20;77.30;;;-0.80;77.27;95145.56;5004529;28;20122;-73
2020/12/31 04:01:33;;;;;;;6.57;5.03;;;1.20;77.40;;;-0.81;77.70;95140.56;5005325;28;20485;-72
2020/12/31 04:03:59;;;;;;;9.75;5.15;;;1.20;77.50;;;-0.83;77.13;95137.31;5004224;28;20069;-72
2020/12/31 04:06:25;;;;;;;8.15;4.80;;;1.20;77.40;;;-0.84;77.29;95136.50;5005207;28;20042;-72
2020/12/31 04:08:51;;;;;;;7.05;4.40;;;1.10;77.30;;;-0.85;76.89;95134.88;5004054;28;20786;-72
2020/12/31 04:11:17;;;;;;;7.10;4.25;;;1.20;77.50;;;-0.86;77.28;95138.41;4987066;28;20129;-72
2020/12/31 04:13:43;;;;;;;7.00;3.90;;;1.10;77.20;;;-0.86;77.23;95132.44;4988335;28;20046;-72
2020/12/31 04:16:08;;;;;;;6.90;4.00;;;1.10;77.10;;;-0.89;77.15;95130.94;5006428;28;20038;-72
2020/12/31 04:18:34;;;;;;;8.48;4.10;;;1.20;77.00;;;-0.88;77.26;95135.16;5004556;28;20042;-72
2020/12/31 04:21:00;;;;;;;6.18;4.00;;;1.10;77.00;;;-0.88;77.18;95127.41;4973478;28;20042;-72
2020/12/31 04:23:26;;;;;;;5.80;3.97;;;1.20;76.90;;;-0.89;77.05;95135.31;5005320;28;20104;-72
2020/12/31 04:25:52;;;;;;;5.65;3.90;;;1.10;77.10;;;-0.91;76.88;95125.09;4987932;28;20066;-72
2020/12/31 04:28:17;;;;;;;7.10;4.13;;;1.10;77.10;;;-0.92;76.92;95123.47;4991105;28;20128;-72
2020/12/31 04:30:47;;;;;;;9.93;3.85;;;1.10;77.10;;;-0.92;77.51;95126.06;5007010;28;20049;-72
2020/12/31 04:33:13;;;;;;;7.72;4.05;;;1.10;77.20;;;-0.94;77.14;95123.63;5008855;28;20041;-72
2020/12/31 04:35:39;;;;;;;7.32;4.38;;;1.10;77.10;;;-0.95;77.36;95126.34;5008277;28;20125;-72
2020/12/31 04:38:05;;;;;;;5.88;4.03;;;1.10;77.00;;;-1.02;77.41;95117.56;5007338;28;20072;-72
2020/12/31 04:40:33;;;;;;;5.57;3.92;;;1.10;76.90;;;-0.95;77.60;95128.91;5008229;28;20468;-72
2020/12/31 04:42:59;;;;;;;7.88;4.28;;;1.10;76.80;;;-0.98;77.51;95127.44;5024705;28;20034;-72
2020/12/31 04:45:26;;;;;;;6.55;4.00;;;1.10;76.60;;;-0.97;77.21;95115.34;5008480;28;20034;-71
2020/12/31 04:48:24;;;;;;;5.90;3.75;;;1.10;76.60;;;-0.97;78.19;95117.94;5006908;28;20800;-73
2020/12/31 04:50:49;;;;;;;6.40;4.13;;;1.20;76.50;;;-0.99;77.16;95122.41;5005971;28;20041;-72
2020/12/31 04:53:15;;;;;;;5.88;3.80;;;1.20;76.50;;;-1.01;77.39;95126.91;4989599;28;20066;-72
2020/12/31 04:55:44;;;;;;;7.20;4.03;;;1.10;76.40;;;-1.03;77.60;95128.81;5009470;28;20061;-72
2020/12/31 04:58:12;;;;;;;6.68;3.75;;;1.10;76.40;;;-1.05;77.71;95123.00;4979675;28;20038;-72
2020/12/31 05:00:38;;;;;;;5.45;3.70;;;1.10;76.60;;;-1.06;77.34;95122.19;4990302;28;20034;-72
2020/12/31 05:03:05;;;;;;;7.65;4.10;;;1.10;76.50;;;-1.05;77.42;95123.00;5007376;28;20382;-73
2020/12/31 05:05:34;;;;;;;5.70;3.55;;;1.10;76.70;;;-1.07;78.14;95125.72;4990446;28;20045;-73
2020/12/31 05:08:00;;;;;;;5.25;3.80;;;1.10;76.60;;;-1.08;78.11;95128.44;4991365;28;20389;-73
2020/12/31 05:10:26;;;;;;;5.85;3.50;;;1.10;76.50;;;-1.09;77.62;95126.81;4991238;28;20040;-72
2020/12/31 05:13:06;;;;;;;6.70;3.67;;;1.10;76.40;;;-1.11;78.62;95123.56;4989610;28;20060;-73
2020/12/31 05:15:40;;;;;;;5.32;3.35;;;1.10;76.40;;;-1.10;78.23;95130.34;4990916;28;20124;-73
2020/12/31 05:18:24;;;;;;;7.10;3.22;;;1.00;76.30;;;-1.10;78.33;95135.53;5003391;28;20576;-72
2020/12/31 05:20:58;;;;;;;8.35;4.15;;;1.00;76.50;;;-1.09;77.97;95131.97;5008354;28;20042;-71
2020/12/31 05:23:28;;;;;;;8.18;4.80;;;1.10;76.10;;;-1.09;77.71;95131.97;5007667;28;20038;-72
2020/12/31 05:25:57;;;;;;;22.98;14.07;;;1.10;76.20;;;-1.10;78.00;95130.34;5007037;28;20033;-72
2020/12/31 05:28:23;;;;;;;12.20;6.72;;;1.10;76.20;;;-1.10;77.33;95130.34;5006638;28;20041;-71
2020/12/31 05:30:50;;;;;;;5.10;3.22;;;1.10;76.40;;;-1.08;77.21;95123.28;5005496;28;20631;-71
2020/12/31 05:33:30;;;;;;;5.72;3.28;;;1.10;76.20;;;-1.08;78.99;95118.13;5007202;28;20026;-72
2020/12/31 05:36:23;;;;;;;6.65;3.30;;;1.10;76.20;;;-1.07;78.23;95115.41;5006300;28;20096;-72
2020/12/31 05:38:57;;;;;;;5.63;3.47;;;1.10;76.10;;;-1.07;77.78;95119.75;5006870;28;20049;-72
2020/12/31 05:41:32;;;;;;;5.13;3.40;;;1.10;76.10;;;-1.08;77.59;95116.34;5006942;28;20038;-72
2020/12/31 05:44:06;;;;;;;5.43;3.38;;;1.10;76.10;;;-1.08;77.88;95123.28;5006990;28;20129;-72
2020/12/31 05:46:37;;;;;;;5.20;3.08;;;1.10;76.00;;;-1.09;77.67;95116.50;5007080;28;20145;-72
2020/12/31 05:49:05;;;;;;;4.88;3.60;;;1.10;76.10;;;-1.09;77.27;95121.66;5003888;28;20029;-72
2020/12/31 05:51:40;;;;;;;5.85;3.55;;;1.10;76.00;;;-1.11;77.50;95105.50;5007207;28;20038;-72
2020/12/31 05:54:11;;;;;;;4.85;3.33;;;1.10;76.00;;;-1.12;77.65;95114.22;4991709;28;20120;-73
2020/12/31 05:56:38;;;;;;;6.07;3.67;;;1.00;76.10;;;-1.12;77.71;95117.59;5004369;28;20579;-72
2020/12/31 05:59:20;;;;;;;5.22;3.33;;;1.10;76.10;;;-1.13;78.50;95115.97;4990822;28;20128;-71
2020/12/31 06:02:02;;;;;;;5.53;3.25;;;1.10;76.00;;;-1.16;78.62;95108.50;5004566;28;20042;-72
2020/12/31 06:04:31;;;;;;;5.88;3.60;;;1.10;76.10;;;-1.16;77.78;95110.25;4995290;28;20042;-72
2020/12/31 06:07:03;;;;;;;7.05;3.30;;;1.00;76.20;;;-1.19;78.43;95113.13;5007548;28;20046;-72
2020/12/31 06:09:34;;;;;;;5.50;2.97;;;0.90;76.40;;;-1.21;78.22;95117.63;5006686;28;20437;-72
2020/12/31 06:12:06;;;;;;;5.85;3.53;;;0.90;76.70;;;-1.23;78.43;95121.16;5006673;28;20038;-72
2020/12/31 06:14:32;;;;;;;6.50;3.90;;;0.90;76.90;;;-1.24;77.93;95122.09;4990434;28;20046;-72
2020/12/31 06:17:05;;;;;;;5.35;3.30;;;0.80;77.00;;;-1.25;78.80;95127.41;5007230;28;20041;-72
2020/12/31 06:19:40;;;;;;;6.15;3.45;;;0.80;77.20;;;-1.28;78.45;95115.59;5006387;28;20040;-73
2020/12/31 06:22:10;;;;;;;5.75;3.30;;;0.80;77.10;;;-1.30;78.16;95120.09;4990996;28;20037;-72
2020/12/31 06:24:45;;;;;;;6.25;3.97;;;0.80;77.00;;;-1.33;78.69;95125.53;4969413;28;20390;-73
2020/12/31 06:27:17;;;;;;;7.00;3.75;;;0.80;77.00;;;-1.38;78.74;95122.53;5006680;28;20030;-72
2020/12/31 06:29:48;;;;;;;5.20;3.40;;;0.80;77.10;;;-1.40;78.39;95131.38;5004248;28;20063;-72
2020/12/31 06:32:38;;;;;;;5.43;3.97;;;0.70;77.30;;;-1.41;78.77;95133.16;5006083;28;20053;-72
2020/12/31 06:35:08;;;;;;;6.72;3.85;;;0.60;77.40;;;-1.44;78.67;95130.84;4985373;28;20034;-72
2020/12/31 06:37:33;;;;;;;5.30;3.50;;;0.70;77.60;;;-1.50;78.22;95128.84;4985651;28;20022;-72
2020/12/31 06:40:31;;;;;;;5.47;3.80;;;0.60;77.40;;;-1.58;79.76;95128.72;4985384;28;20069;-71
2020/12/31 06:43:16;;;;;;;6.22;3.88;;;0.60;77.60;;;-1.62;79.54;95129.94;4989648;28;20038;-71
2020/12/31 06:45:46;;;;;;;13.88;7.80;;;0.40;77.80;;;-1.63;78.84;95138.63;5004839;28;20049;-71
2020/12/31 06:48:35;;;;;;;29.73;14.43;;;0.40;79.10;;;-1.61;81.14;95136.72;5006454;28;20408;-72
2020/12/31 06:51:10;;;;;;;13.27;7.22;;;0.60;80.00;;;-1.62;79.65;95140.25;4991658;28;20113;-72
2020/12/31 06:53:46;;;;;;;6.30;4.15;;;0.50;78.80;;;-1.66;79.68;95134.56;4974321;28;20081;-72
2020/12/31 06:56:13;;;;;;;5.05;3.67;;;0.50;78.50;;;-1.66;78.69;95141.47;5005371;28;20544;-71
2020/12/31 06:58:39;;;;;;;5.20;3.38;;;0.40;78.10;;;-1.68;78.41;95141.63;5003249;28;20585;-71
2020/12/31 07:01:31;;;;;;;20.23;11.35;;;0.40;78.30;;;-1.69;80.34;95144.34;5007213;28;20042;-72
2020/12/31 07:03:57;;;;;;;16.13;9.52;;;0.50;78.40;;;-1.68;78.58;95146.75;5005380;28;20034;-71
2020/12/31 07:06:25;;;;;;;9.32;4.80;;;0.50;78.50;;;-1.69;78.40;95144.34;4989557;28;20041;-67
2020/12/31 07:09:02;;;;;;;8.13;4.25;;;0.50;78.20;;;-1.68;79.86;95145.97;4986651;28;20042;-67
2020/12/31 07:11:35;;;;;;;9.15;4.00;;;0.60;78.10;;;-1.69;79.68;95149.47;5005065;28;20497;-69
2020/12/31 07:14:22;;;;;;;5.95;3.85;;;0.50;77.80;;;-1.68;80.23;95151.13;5000877;28;20512;-70
2020/12/31 07:16:54;;;;;;;7.63;4.15;;;0.60;77.60;;;-1.69;79.18;95155.44;5004778;28;20049;-72
2020/12/31 07:19:21;;;;;;;7.15;3.60;;;0.60;77.40;;;-1.70;78.74;95158.97;5008760;28;20102;-69
2020/12/31 07:21:49;;;;;;;8.98;4.20;;;0.60;77.50;;;-1.68;79.36;95151.91;4975562;28;20072;-70
2020/12/31 07:24:29;;;;;;;8.38;4.38;;;0.70;78.90;;;-1.64;80.44;95147.31;5004272;28;20111;-71
2020/12/31 07:27:03;;;;;;;7.20;3.97;;;0.70;79.20;;;-1.65;79.86;95145.69;5003963;28;20058;-71
2020/12/31 07:29:33;;;;;;;7.57;3.83;;;0.70;77.80;;;-1.63;79.18;95143.78;5005657;28;20512;-71
2020/12/31 07:32:01;;;;;;;6.32;3.30;;;0.70;77.20;;;-1.63;78.42;95148.94;5005150;28;20033;-71
2020/12/31 07:34:28;;;;;;;5.70;3.72;;;0.70;76.80;;;-1.64;78.37;95155.84;5004983;28;20037;-72
2020/12/31 07:37:03;;;;;;;6.40;4.10;;;0.60;76.80;;;-1.66;79.34;95149.22;5006161;28;20037;-71
2020/12/31 07:39:30;;;;;;;6.53;4.13;;;0.60;76.60;;;-1.69;78.03;95155.44;4989935;28;20034;-71
2020/12/31 07:42:28;;;;;;;6.25;4.05;;;0.60;76.70;;;-1.71;79.50;95156.53;5004592;28;20042;-70
2020/12/31 07:44:56;;;;;;;7.10;4.40;;;0.60;76.50;;;-1.73;78.46;95146.38;4945218;28;21983;-71
2020/12/31 07:47:23;;;;;;;11.40;5.18;;;0.70;76.50;;;-1.71;78.77;95135.91;5006198;28;20034;-71
2020/12/31 07:49:51;;;;;;;13.15;5.57;;;0.70;76.60;;;-1.68;78.94;95140.81;4993002;28;20053;-71
2020/12/31 07:52:17;;;;;;;12.85;6.82;;;0.70;77.00;;;-1.67;78.73;95137.28;4989440;28;20125;-71
2020/12/31 07:54:42;;;;;;;13.63;5.80;;;0.80;76.80;;;-1.65;78.75;95130.22;5004482;28;20390;-71
2020/12/31 07:57:13;;;;;;;7.70;4.65;;;0.80;77.00;;;-1.63;79.70;95134.28;5005091;28;20121;-71
2020/12/31 07:59:45;;;;;;;7.45;4.30;;;0.80;77.30;;;-1.59;80.16;95125.31;4987162;28;20497;-71
2020/12/31 08:02:15;;;;;;;10.43;6.25;;;0.90;77.30;;;-1.51;79.83;95123.81;5008247;28;20519;-72
2020/12/31 08:04:42;;;;;;;8.02;4.95;;;0.90;77.40;;;-1.47;79.09;95128.56;4992927;28;20076;-72
2020/12/31 08:07:17;;;;;;;8.20;4.47;;;1.00;77.30;;;-1.42;79.90;95125.53;4976586;28;20121;-71
2020/12/31 08:09:44;;;;;;;18.27;10.38;;;1.00;77.20;;;-1.35;79.43;95127.44;5007874;28;20053;-71
2020/12/31 08:12:10;;;;;;;28.10;15.45;;;1.10;77.60;;;-1.26;79.58;95125.78;5008681;28;20532;-71
2020/12/31 08:14:42;;;;;;;28.77;16.40;;;1.20;78.10;;;-1.19;79.92;95123.44;5009483;28;20034;-72
2020/12/31 08:17:08;;;;;;;10.10;5.57;;;1.40;77.40;;;-1.15;79.17;95119.63;5009482;28;20042;-68
2020/12/31 08:19:35;;;;;;;6.95;3.75;;;1.40;76.50;;;-1.10;78.80;95115.69;5008344;28;20061;-68
2020/12/31 08:22:23;;;;;;;6.53;3.47;;;1.40;76.10;;;-1.03;79.95;95115.94;4985815;28;20148;-69
2020/12/31 08:24:59;;;;;;;6.25;3.45;;;1.40;76.00;;;-0.98;79.44;95108.56;5006840;28;20050;-67
2020/12/31 08:27:25;;;;;;;4.80;3.05;;;1.60;75.70;;;-0.93;78.95;95112.34;5008441;28;20128;-70
2020/12/31 08:29:51;;;;;;;5.70;3.25;;;1.60;75.60;;;-0.86;78.87;95111.78;4975225;28;20168;-73
2020/12/31 08:32:27;;;;;;;5.82;3.38;;;1.60;75.50;;;-0.82;79.28;95108.78;4992668;28;20045;-71
2020/12/31 08:34:54;;;;;;;5.72;3.40;;;1.70;75.50;;;-0.75;78.84;95106.41;4991562;28;20045;-70
2020/12/31 08:37:22;;;;;;;5.90;3.53;;;1.70;75.30;;;-0.71;78.81;95108.56;5009430;28;20559;-72
2020/12/31 08:39:51;;;;;;;6.50;3.15;;;1.80;75.10;;;-0.68;78.78;95110.03;5009912;28;20044;-72
2020/12/31 08:42:18;;;;;;;5.97;3.00;;;1.80;74.60;;;-0.65;78.66;95110.59;5008683;28;20113;-69
2020/12/31 08:44:44;;;;;;;5.80;3.58;;;1.90;74.60;;;-0.62;78.78;95099.97;4991796;28;20477;-69
2020/12/31 08:47:21;;;;;;;8.07;3.75;;;1.80;74.50;;;-0.57;78.66;95107.28;4971655;28;20108;-69
2020/12/31 08:49:55;;;;;;;8.93;3.72;;;1.90;74.50;;;-0.51;78.26;95116.19;4990213;28;20037;-69
2020/12/31 08:52:25;;;;;;;7.05;3.45;;;1.90;74.00;;;-0.49;78.08;95102.19;5008228;28;20091;-70
2020/12/31 08:55:08;;;;;;;6.22;3.20;;;1.90;74.30;;;-0.44;78.62;95105.16;5007284;28;20038;-69
2020/12/31 08:57:34;;;;;;;7.55;4.25;;;2.00;74.40;;;-0.38;78.22;95102.00;5008636;28;20030;-69
2020/12/31 09:00:00;;;;;;;6.05;3.50;;;2.10;74.50;;;-0.32;78.07;95090.25;5007144;28;20465;-67
2020/12/31 09:02:26;;;;;;;7.28;3.60;;;2.10;74.30;;;-0.26;78.18;95083.66;4989913;28;20041;-67
2020/12/31 09:05:15;;;;;;;6.75;3.70;;;2.10;73.60;;;-0.19;78.10;95082.94;4980660;28;20066;-66
2020/12/31 09:07:41;;;;;;;6.03;3.10;;;2.20;73.30;;;-0.11;77.54;95098.53;4979045;28;20039;-66
2020/12/31 09:10:15;;;;;;;5.82;2.92;;;2.40;73.30;;;-0.03;77.89;95080.47;4971905;28;20049;-66
2020/12/31 09:12:41;;;;;;;6.55;3.00;;;2.40;72.90;;;0.06;77.69;95083.97;4958420;28;20038;-66
2020/12/31 09:15:07;;;;;;;5.20;2.75;;;2.40;72.60;;;0.12;77.87;95085.13;4986674;28;20080;-65
2020/12/31 09:17:33;;;;;;;4.68;2.60;;;2.50;72.80;;;0.21;77.47;95076.47;4986280;28;20046;-70
2020/12/31 09:19:58;;;;;;;3.85;2.20;;;2.70;72.30;;;0.28;77.13;95073.16;4971593;28;20541;-65
2020/12/31 09:22:25;;;;;;;4.63;2.30;;;2.70;71.80;;;0.36;77.43;95080.13;4970310;28;20055;-65
2020/12/31 09:24:51;;;;;;;3.58;2.15;;;2.80;71.60;;;0.45;77.26;95074.03;4981802;28;22523;-64
2020/12/31 09:27:26;;;;;;;4.35;2.40;;;3.00;71.00;;;0.55;76.50;95069.59;4987214;28;20120;-63
2020/12/31 09:30:11;;;;;;;3.97;2.15;;;3.10;70.90;;;0.70;75.45;95069.03;4970870;28;20573;-66
2020/12/31 09:32:37;;;;;;;3.60;2.10;;;3.20;70.10;;;0.80;76.66;95061.97;4968498;28;20397;-65
2020/12/31 09:35:05;;;;;;;4.53;2.25;;;3.30;69.30;;;0.93;76.22;95059.78;4988138;28;20118;-64
2020/12/31 09:37:47;;;;;;;4.32;2.38;;;3.40;68.50;;;1.02;74.77;95063.19;4970714;28;20038;-63
2020/12/31 09:40:12;;;;;;;5.60;2.67;;;3.50;68.10;;;1.14;76.33;95055.00;4982166;28;20070;-63
2020/12/31 09:42:38;;;;;;;3.22;1.85;;;3.70;68.00;;;1.30;75.21;95063.78;4987708;28;20038;-68
2020/12/31 09:45:04;;;;;;;4.88;2.63;;;3.90;66.90;;;1.45;75.28;95059.63;4984838;28;20118;-72
2020/12/31 09:47:31;;;;;;;7.25;2.40;;;4.10;66.20;;;1.55;74.84;95055.09;4985043;28;20482;-72
2020/12/31 09:49:57;;;;;;;5.40;2.40;;;4.10;65.00;;;1.65;74.70;95057.56;4969980;28;20034;-71
2020/12/31 09:52:22;;;;;;;4.10;2.30;;;4.10;65.20;;;1.75;74.50;95043.47;4972408;28;20463;-72
2020/12/31 09:54:48;;;;;;;5.68;2.10;;;4.30;64.80;;;1.84;74.37;95042.50;4987043;28;20125;-77
2020/12/31 09:57:14;;;;;;;5.45;2.78;;;4.40;64.40;;;1.99;74.87;95041.84;4987173;28;20030;-73
2020/12/31 09:59:40;;;;;;;5.47;2.45;;;4.60;64.60;;;2.15;74.04;95039.25;4985731;28;20390;-71
2020/12/31 10:02:05;;;;;;;6.05;2.78;;;4.90;63.60;;;2.26;74.18;95031.13;4983564;28;20502;-73
2020/12/31 10:04:31;;;;;;;5.53;2.53;;;5.00;62.90;;;2.37;73.94;95033.41;4987385;28;20057;-71
2020/12/31 10:06:57;;;;;;;4.63;2.47;;;5.30;62.30;;;2.53;74.00;95031.75;4970899;28;20383;-73
2020/12/31 10:09:22;;;;;;;4.15;2.47;;;5.70;61.20;;;2.69;74.15;95031.69;4986721;28;20081;-73
2020/12/31 10:11:48;;;;;;;4.32;2.58;;;6.10;59.60;;;2.81;73.37;95035.56;4991663;28;20061;-73
2020/12/31 10:14:15;;;;;;;4.90;2.90;;;6.50;58.00;;;2.88;72.98;95015.75;4988627;28;20124;-73
2020/12/31 10:16:41;;;;;;;5.00;2.97;;;7.10;56.10;;;3.03;73.50;95013.25;4966630;28;20038;-72
2020/12/31 10:19:07;;;;;;;5.35;2.90;;;7.40;54.70;;;3.14;73.75;94999.88;4971167;28;20053;-72
2020/12/31 10:21:32;;;;;;;4.03;2.72;;;7.90;52.90;;;3.30;73.75;95002.41;4970415;28;20037;-74
2020/12/31 10:23:58;;;;;;;6.97;3.20;;;7.90;51.50;;;3.43;73.42;95001.84;4970780;28;20053;-72
2020/12/31 10:26:24;;;;;;;5.35;3.50;;;7.70;52.80;;;3.61;73.07;94991.97;4988141;28;20030;-72
2020/12/31 10:28:50;;;;;;;8.80;4.63;;;7.60;53.20;;;3.79;72.90;94985.66;4986373;28;20394;-73
2020/12/31 10:31:15;;;;;;;5.18;3.50;;;8.10;53.00;;;3.93;71.64;94983.13;4984569;28;20053;-72
2020/12/31 10:33:41;;;;;;;6.55;3.00;;;8.70;49.00;;;4.10;71.70;94976.00;4986321;28;20034;-73
2020/12/31 10:36:08;;;;;;;4.18;2.35;;;9.40;47.10;;;4.33;69.72;94973.34;4970653;28;20742;-69